Time;durP1;ratioP1;P1;durP2;ratioP2;P2;SDS_P1;SDS_P2;PMS_P1;PMS_P2;Temp;Humidity;BMP_temperature;BMP_pressure;BME280_temperature;BME280_humidity;BME280_pressure;Samples;Min_cycle;Max_cycle;Signal;HPM_P1;HPM_P2
2022/05/05 00:01:53;;;;;;;6.07;3.08;;;17.70;53.10;;;;;;5093968;28;20197;-69
2022/05/05 00:04:21;;;;;;;4.00;3.10;;;17.80;53.20;;;;;;5093842;28;20532;-70
2022/05/05 00:06:47;;;;;;;3.63;2.88;;;17.70;53.10;;;;;;5093792;28;20622;-68
2022/05/05 00:09:13;;;;;;;3.47;2.95;;;17.80;53.20;;;;;;5094125;28;20182;-70
2022/05/05 00:14:28;;;;;;;3.97;2.90;;;17.70;53.20;;;;;;5094039;28;20224;-72
2022/05/05 00:16:56;;;;;;;3.95;3.22;;;17.70;53.20;;;;;;5093213;28;20686;-70
2022/05/05 00:19:21;;;;;;;3.65;3.03;;;17.70;53.20;;;;;;5094098;28;20256;-70
2022/05/05 00:21:47;;;;;;;4.15;3.10;;;17.70;53.20;;;;;;5093754;28;20213;-72
2022/05/05 00:24:12;;;;;;;3.03;2.72;;;17.70;53.20;;;;;;5093401;28;20208;-72
2022/05/05 00:26:38;;;;;;;3.78;3.10;;;17.70;53.20;;;;;;5093441;28;20202;-71
2022/05/05 00:29:04;;;;;;;4.25;3.08;;;17.70;53.20;;;;;;5093881;28;20178;-69
2022/05/05 00:31:29;;;;;;;3.15;2.72;;;17.70;53.20;;;;;;5093251;28;20194;-69
2022/05/05 00:33:55;;;;;;;3.20;2.90;;;17.70;53.20;;;;;;5093315;28;20173;-69
2022/05/05 00:36:20;;;;;;;3.25;2.95;;;17.70;53.20;;;;;;5093917;28;20640;-70
2022/05/05 00:38:46;;;;;;;3.47;3.05;;;17.70;53.20;;;;;;5092685;28;20174;-69
2022/05/05 00:41:11;;;;;;;3.55;2.90;;;17.60;53.20;;;;;;5093548;28;20169;-69
2022/05/05 00:43:37;;;;;;;3.40;3.05;;;17.70;53.20;;;;;;5093130;28;20178;-70
2022/05/05 00:46:03;;;;;;;3.25;2.75;;;17.70;53.20;;;;;;5092899;28;20668;-69
2022/05/05 00:48:29;;;;;;;4.20;3.10;;;17.60;53.20;;;;;;5093585;28;20210;-69
2022/05/05 00:50:54;;;;;;;3.20;2.90;;;17.60;53.30;;;;;;5093380;28;20641;-69
2022/05/05 00:53:20;;;;;;;3.10;2.75;;;17.60;53.20;;;;;;5092577;28;20197;-68
2022/05/05 00:55:45;;;;;;;3.03;2.60;;;17.60;53.10;;;;;;5092935;28;20174;-72
2022/05/05 00:58:12;;;;;;;3.80;3.22;;;17.60;53.20;;;;;;5092032;28;20170;-71
2022/05/05 01:00:37;;;;;;;3.53;3.22;;;17.60;53.30;;;;;;5091168;28;20261;-69
2022/05/05 01:03:03;;;;;;;3.30;2.97;;;17.60;53.20;;;;;;5093361;28;20212;-70
2022/05/05 01:05:28;;;;;;;3.15;2.95;;;17.60;53.20;;;;;;5093272;28;20252;-68
2022/05/05 01:07:58;;;;;;;3.33;2.90;;;17.60;53.30;;;;;;5092404;28;20658;-70
2022/05/05 01:10:25;;;;;;;3.13;2.83;;;17.60;53.30;;;;;;5093055;28;20181;-72
2022/05/05 01:12:50;;;;;;;3.15;2.85;;;17.60;53.30;;;;;;5092172;28;20516;-71
2022/05/05 01:15:16;;;;;;;3.15;2.92;;;17.60;53.30;;;;;;5093328;28;20632;-71
2022/05/05 01:17:41;;;;;;;3.42;3.13;;;17.60;53.30;;;;;;5092686;28;20227;-71
2022/05/05 01:20:14;;;;;;;3.55;3.15;;;17.60;53.30;;;;;;5092476;28;20169;-72
2022/05/05 01:22:40;;;;;;;3.15;2.85;;;17.60;53.30;;;;;;5092658;28;20555;-72
2022/05/05 01:30:34;;;;;;;3.45;3.08;;;17.60;53.90;;;;;;5092937;28;20234;-70
2022/05/05 01:33:00;;;;;;;3.03;2.63;;;17.60;53.40;;;;;;5092915;28;20177;-69
2022/05/05 01:35:25;;;;;;;3.90;3.40;;;17.60;53.40;;;;;;5092100;28;20170;-70
2022/05/05 01:37:51;;;;;;;3.92;3.10;;;17.60;53.40;;;;;;5092331;28;20174;-70
2022/05/05 01:40:16;;;;;;;3.28;2.80;;;17.60;53.30;;;;;;5092972;28;20513;-71
2022/05/05 01:42:42;;;;;;;2.90;2.70;;;17.50;53.40;;;;;;5092002;28;20170;-70
2022/05/05 01:45:08;;;;;;;3.50;2.78;;;17.50;53.30;;;;;;5092890;28;20177;-71
2022/05/05 01:47:34;;;;;;;3.75;3.10;;;17.50;54.00;;;;;;5092726;28;20308;-71
2022/05/05 01:50:00;;;;;;;3.00;2.80;;;17.50;53.40;;;;;;5092047;28;20205;-70
2022/05/05 01:52:27;;;;;;;3.67;3.38;;;17.50;53.30;;;;;;5093778;28;20173;-72
2022/05/05 01:54:52;;;;;;;3.30;3.00;;;17.50;53.30;;;;;;5096051;28;20746;-71
2022/05/05 01:57:18;;;;;;;3.35;3.03;;;17.50;53.40;;;;;;5096886;28;20182;-72
2022/05/05 01:59:43;;;;;;;3.20;2.90;;;17.50;53.40;;;;;;5096223;28;20267;-71
2022/05/05 02:02:09;;;;;;;3.58;3.28;;;17.50;53.40;;;;;;5096142;28;20173;-71
2022/05/05 02:04:37;;;;;;;3.50;3.20;;;17.50;53.40;;;;;;5096529;28;20174;-70
2022/05/05 02:07:03;;;;;;;3.40;3.20;;;17.50;53.30;;;;;;5096445;28;20537;-70
2022/05/05 02:09:30;;;;;;;3.15;2.95;;;17.50;53.40;;;;;;5096060;28;20173;-72
2022/05/05 02:11:56;;;;;;;4.10;2.97;;;17.50;53.40;;;;;;5096302;28;20253;-72
2022/05/05 02:14:24;;;;;;;3.30;3.00;;;17.50;53.40;;;;;;5096456;28;20180;-73
2022/05/05 02:16:50;;;;;;;3.15;2.83;;;17.50;53.40;;;;;;5095453;28;20178;-72
2022/05/05 02:19:16;;;;;;;3.63;3.33;;;17.50;53.40;;;;;;5096343;28;20249;-71
2022/05/05 02:21:41;;;;;;;4.10;3.42;;;17.40;53.40;;;;;;5096171;28;20661;-72
2022/05/05 02:24:07;;;;;;;3.65;3.35;;;17.40;53.40;;;;;;5095425;28;20173;-72
2022/05/05 02:26:36;;;;;;;3.65;3.40;;;17.40;53.50;;;;;;5096408;28;20559;-71
2022/05/05 02:29:04;;;;;;;4.47;3.45;;;17.40;53.40;;;;;;5096266;28;20245;-71
2022/05/05 02:31:30;;;;;;;3.85;3.50;;;17.40;53.40;;;;;;5095435;28;20188;-69
2022/05/05 02:33:55;;;;;;;3.22;3.03;;;17.40;53.40;;;;;;5095799;28;20558;-71
2022/05/05 02:39:05;;;;;;;3.78;2.90;;;17.40;53.40;;;;;;5095340;28;20621;-69
2022/05/05 02:41:30;;;;;;;3.70;3.22;;;17.40;53.40;;;;;;5095948;28;20166;-70
2022/05/05 02:43:56;;;;;;;3.60;3.38;;;17.40;53.40;;;;;;5095555;28;20184;-70
2022/05/05 02:46:21;;;;;;;3.50;3.20;;;17.20;53.40;;;;;;5095196;28;20202;-71
2022/05/05 02:48:47;;;;;;;4.55;3.30;;;17.40;53.40;;;;;;5095280;28;20186;-70
2022/05/05 02:51:12;;;;;;;3.08;2.88;;;17.40;53.50;;;;;;5095244;28;20173;-71
2022/05/05 02:56:22;;;;;;;3.53;3.20;;;17.40;53.40;;;;;;5095819;28;20176;-72
2022/05/05 02:58:48;;;;;;;3.13;2.92;;;17.40;53.50;;;;;;5094424;28;20586;-71
2022/05/05 03:01:13;;;;;;;3.50;3.20;;;17.40;53.40;;;;;;5095461;28;20260;-69
2022/05/05 03:03:39;;;;;;;3.70;3.40;;;17.30;53.40;;;;;;5095374;28;20174;-70
2022/05/05 03:06:04;;;;;;;3.80;3.50;;;17.30;53.40;;;;;;5094787;28;20170;-71
2022/05/05 03:08:30;;;;;;;4.00;3.70;;;17.30;53.50;;;;;;5095494;28;20174;-70
2022/05/05 03:10:55;;;;;;;3.50;3.20;;;17.30;53.40;;;;;;5095281;28;20169;-72
2022/05/05 03:13:21;;;;;;;3.28;2.97;;;17.30;53.50;;;;;;5094461;28;20511;-71
2022/05/05 03:15:46;;;;;;;3.45;3.25;;;17.30;53.40;;;;;;5094883;28;20224;-72
2022/05/05 03:18:12;;;;;;;3.85;3.47;;;17.30;53.50;;;;;;5095187;28;20226;-72
2022/05/05 03:20:37;;;;;;;3.33;3.03;;;17.30;53.50;;;;;;5094168;28;20177;-71
2022/05/05 03:23:03;;;;;;;3.65;3.35;;;17.30;53.40;;;;;;5095081;28;20535;-72
2022/05/05 03:25:28;;;;;;;3.58;3.28;;;17.30;53.40;;;;;;5095126;28;20178;-71
2022/05/05 03:27:54;;;;;;;4.07;3.28;;;17.30;53.50;;;;;;5094053;28;20704;-72
2022/05/05 03:30:19;;;;;;;3.47;3.17;;;17.30;53.50;;;;;;5094969;28;20166;-71
2022/05/05 03:32:45;;;;;;;3.00;2.80;;;17.20;53.40;;;;;;5094544;28;20237;-68
2022/05/05 03:35:10;;;;;;;3.53;3.22;;;17.30;53.50;;;;;;5094032;28;20652;-70
2022/05/05 03:37:36;;;;;;;3.10;2.90;;;17.30;53.50;;;;;;5094576;28;20174;-69
2022/05/05 03:40:01;;;;;;;3.30;3.03;;;17.20;53.40;;;;;;5094875;28;20291;-71
2022/05/05 03:42:27;;;;;;;3.60;3.30;;;17.30;53.50;;;;;;5094154;28;20180;-71
2022/05/05 03:44:52;;;;;;;3.70;3.40;;;17.20;53.40;;;;;;5094325;28;20174;-70
2022/05/05 03:47:18;;;;;;;3.08;2.78;;;17.20;53.40;;;;;;5093827;28;20240;-70
2022/05/05 03:49:43;;;;;;;3.15;2.90;;;17.20;53.50;;;;;;5094350;28;20659;-70
2022/05/05 03:52:09;;;;;;;4.25;3.17;;;17.20;53.40;;;;;;5094676;28;20178;-72
2022/05/05 03:54:34;;;;;;;3.13;2.92;;;17.20;53.50;;;;;;5093545;28;20291;-71
2022/05/05 03:57:00;;;;;;;3.10;2.88;;;17.20;53.40;;;;;;5094427;28;20641;-72
2022/05/05 03:59:26;;;;;;;3.47;3.13;;;17.20;53.40;;;;;;5094187;28;20229;-71
2022/05/05 04:01:51;;;;;;;3.13;2.92;;;17.20;53.40;;;;;;5093094;28;20188;-70
2022/05/05 04:04:17;;;;;;;3.88;3.25;;;17.20;53.40;;;;;;5094564;28;20178;-72
2022/05/05 04:06:43;;;;;;;3.40;3.10;;;17.20;53.40;;;;;;5094128;28;20202;-70
2022/05/05 04:09:12;;;;;;;3.50;3.17;;;17.20;53.40;;;;;;5093677;28;20624;-72
2022/05/05 04:11:37;;;;;;;3.83;3.25;;;17.20;53.40;;;;;;5093969;28;20174;-72
2022/05/05 04:14:03;;;;;;;3.35;3.15;;;17.20;53.40;;;;;;5094109;28;20496;-72
2022/05/05 04:16:31;;;;;;;3.22;2.92;;;17.20;53.40;;;;;;5093088;28;20180;-73
2022/05/05 04:18:58;;;;;;;3.38;3.17;;;17.20;53.50;;;;;;5093836;28;20186;-72
2022/05/05 04:21:23;;;;;;;3.20;2.90;;;17.20;53.50;;;;;;5094121;28;20180;-72
2022/05/05 04:23:49;;;;;;;3.55;3.25;;;17.20;53.50;;;;;;5092896;28;20174;-72
2022/05/05 04:26:14;;;;;;;3.22;2.80;;;17.20;53.40;;;;;;5093897;28;20255;-72
2022/05/05 04:28:44;;;;;;;4.53;2.83;;;17.10;53.40;;;;;;5092429;28;20258;-71
2022/05/05 04:31:11;;;;;;;3.38;3.08;;;17.20;53.50;;;;;;5093318;28;20189;-71
2022/05/05 04:33:37;;;;;;;3.05;2.85;;;17.10;53.40;;;;;;5092442;28;20193;-69
2022/05/05 04:36:03;;;;;;;3.47;3.17;;;17.10;53.30;;;;;;5093820;28;20287;-69
2022/05/05 04:38:28;;;;;;;3.60;2.83;;;17.20;53.40;;;;;;5091688;28;20628;-70
2022/05/05 04:40:54;;;;;;;3.35;3.05;;;17.10;53.40;;;;;;5093473;28;20220;-70
2022/05/05 04:43:20;;;;;;;2.83;2.60;;;17.10;53.30;;;;;;5093419;28;20261;-70
2022/05/05 04:45:45;;;;;;;3.42;3.13;;;17.10;53.40;;;;;;5092625;28;20212;-70
2022/05/05 04:48:11;;;;;;;2.88;2.67;;;17.10;53.40;;;;;;5093622;28;20616;-72
2022/05/05 04:50:36;;;;;;;3.10;2.80;;;17.10;53.40;;;;;;5092790;28;20524;-70
2022/05/05 04:53:02;;;;;;;2.72;2.53;;;17.10;53.40;;;;;;5093403;28;20170;-72
2022/05/05 04:55:27;;;;;;;3.40;3.10;;;17.10;53.30;;;;;;5093244;28;20660;-72
2022/05/05 04:57:53;;;;;;;2.95;2.60;;;17.10;53.30;;;;;;5092400;28;20177;-71
2022/05/05 05:00:19;;;;;;;3.50;3.20;;;17.10;53.40;;;;;;5093209;28;20217;-71
2022/05/05 05:02:44;;;;;;;2.95;2.70;;;17.10;53.40;;;;;;5093169;28;20173;-70
2022/05/05 05:05:10;;;;;;;2.85;2.65;;;17.10;53.30;;;;;;5092583;28;20640;-70
2022/05/05 05:07:35;;;;;;;3.22;2.92;;;17.10;53.30;;;;;;5092909;28;20396;-71
2022/05/05 05:10:01;;;;;;;2.67;2.47;;;17.10;53.30;;;;;;5093171;28;20166;-72
2022/05/05 05:12:26;;;;;;;3.22;2.92;;;17.10;53.40;;;;;;5092343;28;20595;-73
2022/05/05 05:14:52;;;;;;;2.55;2.35;;;17.10;53.30;;;;;;5092892;28;20169;-72
2022/05/05 05:17:17;;;;;;;3.13;2.83;;;17.10;53.40;;;;;;5093039;28;20192;-72
2022/05/05 05:19:43;;;;;;;3.95;2.60;;;17.10;53.30;;;;;;5092063;28;20174;-71
2022/05/05 05:22:08;;;;;;;3.10;2.80;;;17.10;53.30;;;;;;5092934;28;20208;-74
2022/05/05 05:24:34;;;;;;;3.30;3.00;;;17.10;53.30;;;;;;5092988;28;20215;-71
2022/05/05 05:26:59;;;;;;;3.35;2.53;;;17.10;53.30;;;;;;5091261;28;20221;-71
2022/05/05 05:29:25;;;;;;;2.75;2.55;;;17.10;53.30;;;;;;5093193;28;20651;-71
2022/05/05 05:31:50;;;;;;;2.83;2.55;;;17.10;53.30;;;;;;5092605;28;20166;-69
2022/05/05 05:34:16;;;;;;;3.15;2.80;;;17.10;53.30;;;;;;5092381;28;20173;-69
2022/05/05 05:36:41;;;;;;;2.95;2.75;;;17.10;53.30;;;;;;5092592;28;20174;-69
2022/05/05 05:39:07;;;;;;;3.15;2.83;;;17.10;53.30;;;;;;5092833;28;20213;-70
2022/05/05 05:41:32;;;;;;;2.85;2.58;;;17.20;53.30;;;;;;5092054;28;20288;-70
2022/05/05 05:43:58;;;;;;;2.70;2.50;;;17.10;53.30;;;;;;5092714;28;20166;-69
2022/05/05 05:46:23;;;;;;;2.80;2.50;;;17.20;53.20;;;;;;5092906;28;20193;-72
2022/05/05 05:48:49;;;;;;;3.13;2.85;;;17.20;53.20;;;;;;5091658;28;20534;-69
2022/05/05 05:51:14;;;;;;;2.92;2.70;;;17.20;53.20;;;;;;5092874;28;20223;-71
2022/05/05 05:53:40;;;;;;;2.60;2.40;;;17.20;53.20;;;;;;5092268;28;20249;-70
2022/05/05 05:56:05;;;;;;;4.13;2.40;;;17.20;53.10;;;;;;5091824;28;20170;-71
2022/05/05 05:58:31;;;;;;;4.13;2.95;;;17.20;53.10;;;;;;5092553;28;20229;-73
2022/05/05 06:00:56;;;;;;;3.42;2.80;;;17.20;53.00;;;;;;5091551;28;20189;-73
2022/05/05 06:06:06;;;;;;;3.80;3.00;;;17.20;52.70;;;;;;5092433;28;20189;-69
2022/05/05 06:08:31;;;;;;;5.70;2.97;;;17.20;52.80;;;;;;5091737;28;20170;-73
2022/05/05 06:10:58;;;;;;;4.70;2.92;;;17.20;52.80;;;;;;5092112;28;20192;-69
2022/05/05 06:13:23;;;;;;;4.55;3.40;;;17.20;52.90;;;;;;5092635;28;20196;-68
2022/05/05 06:15:49;;;;;;;6.30;3.00;;;17.30;52.90;;;;;;5091607;28;20644;-68
2022/05/05 06:18:14;;;;;;;4.07;3.35;;;17.20;53.00;;;;;;5092394;28;20234;-69
2022/05/05 06:20:40;;;;;;;7.38;3.63;;;17.30;53.70;;;;;;5092058;28;20177;-68
2022/05/05 06:23:05;;;;;;;5.38;3.40;;;17.30;53.10;;;;;;5091535;28;20184;-68
2022/05/05 06:25:31;;;;;;;3.80;2.88;;;17.30;53.00;;;;;;5092088;28;20339;-68
2022/05/05 06:27:57;;;;;;;7.00;3.17;;;17.30;52.90;;;;;;5092122;28;20232;-67
2022/05/05 06:30:22;;;;;;;3.25;2.80;;;17.40;53.10;;;;;;5091604;28;20170;-68
2022/05/05 06:32:48;;;;;;;5.13;3.08;;;17.40;52.90;;;;;;5091951;28;20230;-68
2022/05/05 06:35:13;;;;;;;9.10;3.40;;;17.50;53.00;;;;;;5092312;28;20170;-68
2022/05/05 06:37:39;;;;;;;4.25;3.08;;;17.50;52.90;;;;;;5091030;28;20192;-68
2022/05/05 06:40:06;;;;;;;3.67;3.05;;;17.60;52.90;;;;;;5095599;28;20177;-68
2022/05/05 06:42:32;;;;;;;4.38;2.97;;;17.60;52.90;;;;;;5096085;28;20201;-70
2022/05/05 06:44:59;;;;;;;5.88;3.15;;;17.60;53.10;;;;;;5094738;28;20644;-69
2022/05/05 06:47:25;;;;;;;10.00;3.58;;;17.60;53.00;;;;;;5095788;28;20214;-68
2022/05/05 06:49:50;;;;;;;7.03;3.47;;;17.60;53.10;;;;;;5095466;28;20173;-69
2022/05/05 06:52:16;;;;;;;6.00;2.92;;;17.60;53.10;;;;;;5094955;28;20512;-71
2022/05/05 06:54:41;;;;;;;6.20;2.97;;;17.60;52.90;;;;;;5095258;28;20205;-71
2022/05/05 06:57:07;;;;;;;4.30;3.03;;;17.60;52.80;;;;;;5095618;28;20257;-71
2022/05/05 06:59:32;;;;;;;5.78;3.25;;;17.60;53.10;;;;;;5094183;28;20572;-72
2022/05/05 07:02:02;;;;;;;8.18;3.70;;;17.60;52.90;;;;;;5095408;28;20181;-72
2022/05/05 07:07:13;;;;;;;5.10;3.22;;;17.70;52.70;;;;;;5095455;28;20721;-69
2022/05/05 07:12:28;;;;;;;3.38;2.75;;;17.70;52.90;;;;;;5094604;28;20180;-70
2022/05/05 07:14:54;;;;;;;6.60;3.10;;;17.70;52.90;;;;;;5094971;28;20170;-70
2022/05/05 07:17:19;;;;;;;5.43;3.42;;;17.80;52.90;;;;;;5095146;28;20644;-72
2022/05/05 07:19:45;;;;;;;5.28;3.42;;;17.80;53.00;;;;;;5094302;28;20182;-72
2022/05/05 07:22:10;;;;;;;4.80;3.25;;;17.80;53.00;;;;;;5095422;28;20189;-72
2022/05/05 07:24:36;;;;;;;4.93;3.33;;;17.80;53.00;;;;;;5094846;28;20166;-71
2022/05/05 07:27:02;;;;;;;4.07;3.78;;;17.80;53.30;;;;;;5094331;28;20254;-72
2022/05/05 07:29:28;;;;;;;3.22;2.88;;;17.80;53.20;;;;;;5095081;28;20217;-68
2022/05/05 07:31:53;;;;;;;7.95;3.28;;;17.70;53.40;;;;;;5094590;28;20582;-71
2022/05/05 07:34:18;;;;;;;5.97;3.00;;;17.80;53.30;;;;;;5094395;28;20173;-71
2022/05/05 07:36:44;;;;;;;4.85;3.50;;;17.70;53.20;;;;;;5094624;28;20190;-72
2022/05/05 07:39:10;;;;;;;4.50;3.47;;;17.80;53.40;;;;;;5094911;28;20534;-70
2022/05/05 07:41:35;;;;;;;3.92;3.50;;;17.80;53.20;;;;;;5093820;28;20178;-70
2022/05/05 07:44:01;;;;;;;7.00;3.80;;;17.80;53.20;;;;;;5094713;28;20162;-68
2022/05/05 07:46:27;;;;;;;5.53;3.60;;;17.80;53.10;;;;;;5093882;28;20319;-68
2022/05/05 07:48:54;;;;;;;6.25;3.47;;;17.80;53.10;;;;;;5094229;28;20177;-68
2022/05/05 07:51:19;;;;;;;5.30;3.40;;;17.90;53.20;;;;;;5093933;28;20178;-68
2022/05/05 07:54:34;;;;;;;6.38;3.50;;;17.80;53.10;;;;;;5094093;28;20188;-68
2022/05/05 07:56:33;;;;;;;4.40;3.58;;;17.90;53.10;;;;;;5094122;28;20648;-70
2022/05/05 07:58:58;;;;;;;6.75;3.50;;;17.90;53.00;;;;;;5093774;28;20232;-71
2022/05/05 08:01:24;;;;;;;3.25;2.83;;;17.90;53.10;;;;;;5093944;28;20189;-72
2022/05/05 08:03:49;;;;;;;6.28;3.30;;;17.90;53.10;;;;;;5094086;28;20177;-70
2022/05/05 08:06:15;;;;;;;4.95;3.42;;;18.00;53.10;;;;;;5094372;28;20180;-70
2022/05/05 08:08:40;;;;;;;5.05;3.50;;;18.00;53.10;;;;;;5093207;28;20177;-69
2022/05/05 08:11:06;;;;;;;9.13;3.63;;;18.00;53.10;;;;;;5094033;28;20582;-69
2022/05/05 08:13:35;;;;;;;4.03;2.85;;;18.00;53.10;;;;;;5094066;28;20186;-69
2022/05/05 08:16:00;;;;;;;5.97;3.13;;;18.00;53.10;;;;;;5093484;28;20190;-69
2022/05/05 08:18:26;;;;;;;3.45;2.80;;;18.10;53.10;;;;;;5094216;28;20174;-68
2022/05/05 08:20:51;;;;;;;5.72;3.50;;;18.10;53.10;;;;;;5094172;28;20165;-72
2022/05/05 08:23:17;;;;;;;4.68;3.67;;;18.20;53.10;;;;;;5093902;28;20181;-71
2022/05/05 08:28:31;;;;;;;5.38;3.30;;;18.20;53.00;;;;;;5093894;28;20242;-74
2022/05/05 08:30:57;;;;;;;6.78;3.70;;;18.30;53.10;;;;;;5092917;28;20629;-73
2022/05/05 08:33:24;;;;;;;6.07;3.10;;;18.30;53.20;;;;;;5093992;28;20189;-73
2022/05/05 08:35:49;;;;;;;6.13;3.58;;;18.30;53.20;;;;;;5092747;28;20170;-72
2022/05/05 08:38:17;;;;;;;5.35;3.20;;;18.30;53.30;;;;;;5094031;28;20644;-74
2022/05/05 08:40:42;;;;;;;6.90;3.40;;;18.30;53.30;;;;;;5093270;28;20201;-72
2022/05/05 08:43:08;;;;;;;3.50;3.20;;;18.40;53.40;;;;;;5093189;28;20174;-72
2022/05/05 08:45:34;;;;;;;4.38;3.35;;;18.30;53.40;;;;;;5092623;28;20174;-72
2022/05/05 08:47:59;;;;;;;3.97;3.10;;;18.30;53.40;;;;;;5092284;28;20244;-73
2022/05/05 08:50:25;;;;;;;7.15;3.08;;;18.40;53.60;;;;;;5091686;28;20170;-73
2022/05/05 08:52:51;;;;;;;3.58;3.03;;;18.40;53.50;;;;;;5093161;28;20182;-72
2022/05/05 08:55:18;;;;;;;3.03;2.83;;;18.40;53.70;;;;;;5093387;28;20185;-75
2022/05/05 08:57:44;;;;;;;4.25;3.03;;;18.40;53.70;;;;;;5092506;28;20178;-73
2022/05/05 09:00:11;;;;;;;3.58;3.00;;;18.50;54.40;;;;;;5093105;28;20708;-75
2022/05/05 09:02:38;;;;;;;5.95;2.85;;;18.50;53.70;;;;;;5093183;28;20181;-74
2022/05/05 09:05:04;;;;;;;4.13;3.05;;;18.50;53.70;;;;;;5092555;28;20200;-72
2022/05/05 09:07:45;;;;;;;4.50;2.80;;;18.60;53.70;;;;;;5093229;28;20245;-73
2022/05/05 09:10:11;;;;;;;3.53;2.67;;;18.60;53.70;;;;;;5093053;28;20625;-75
2022/05/05 09:12:36;;;;;;;7.55;2.85;;;18.70;53.70;;;;;;5092149;28;20182;-73
2022/05/05 09:15:02;;;;;;;5.05;2.92;;;18.70;53.70;;;;;;5093011;28;20168;-70
2022/05/05 09:17:29;;;;;;;6.68;2.90;;;18.70;53.70;;;;;;5091665;28;20182;-71
2022/05/05 09:19:55;;;;;;;6.82;2.72;;;18.70;53.60;;;;;;5092061;28;20633;-70
2022/05/05 09:22:23;;;;;;;5.97;2.90;;;18.70;53.50;;;;;;5092804;28;20231;-71
2022/05/05 09:24:51;;;;;;;4.10;2.60;;;18.70;53.60;;;;;;5092299;28;20640;-71
2022/05/05 09:27:23;;;;;;;6.65;3.40;;;18.70;53.60;;;;;;5092417;28;20213;-72
2022/05/05 09:30:14;;;;;;;6.28;2.83;;;18.70;53.60;;;;;;5092637;28;20203;-73
2022/05/05 09:32:46;;;;;;;4.55;3.40;;;18.70;53.60;;;;;;5091743;28;20533;-73
2022/05/05 09:35:15;;;;;;;3.95;3.08;;;18.70;53.60;;;;;;5092945;28;20173;-73
2022/05/05 09:37:45;;;;;;;5.50;2.83;;;18.70;53.60;;;;;;5092474;28;20510;-73
2022/05/05 09:40:12;;;;;;;4.43;3.05;;;18.70;53.60;;;;;;5092041;28;20194;-73
2022/05/05 09:42:40;;;;;;;3.72;2.67;;;18.70;53.60;;;;;;5092492;28;20170;-72
2022/05/05 09:45:31;;;;;;;3.10;2.60;;;18.70;53.60;;;;;;5092704;28;20216;-72
2022/05/05 09:48:03;;;;;;;3.10;2.80;;;18.70;53.50;;;;;;5091880;28;20266;-71
2022/05/05 09:50:56;;;;;;;4.75;2.83;;;18.70;53.50;;;;;;5091747;28;20185;-71
2022/05/05 09:59:04;;;;;;;5.07;2.85;;;18.80;53.40;;;;;;5091177;28;20231;-73
2022/05/05 10:01:31;;;;;;;5.07;2.50;;;18.80;53.60;;;;;;5090769;28;20185;-73
2022/05/05 10:04:01;;;;;;;3.80;2.95;;;18.80;53.40;;;;;;5091050;28;20194;-72
2022/05/05 10:06:31;;;;;;;2.78;2.33;;;18.80;53.50;;;;;;5091504;28;20260;-71
2022/05/05 10:09:03;;;;;;;2.75;2.30;;;18.80;53.50;;;;;;5091555;28;20231;-69
2022/05/05 10:11:29;;;;;;;3.22;2.92;;;18.90;53.50;;;;;;5092397;28;20540;-69
2022/05/05 10:13:56;;;;;;;4.82;2.92;;;18.90;53.50;;;;;;5094243;28;20211;-70
2022/05/05 10:16:22;;;;;;;4.25;2.83;;;18.90;53.50;;;;;;5095624;28;20177;-69
2022/05/05 10:18:47;;;;;;;3.05;2.70;;;18.90;53.50;;;;;;5094750;28;20529;-71
2022/05/05 10:21:28;;;;;;;4.75;2.53;;;18.90;53.50;;;;;;5095823;28;20269;-72
2022/05/05 10:24:11;;;;;;;3.40;2.80;;;19.00;53.50;;;;;;5094927;28;20181;-70
2022/05/05 10:26:37;;;;;;;3.50;2.88;;;19.00;53.50;;;;;;5096062;28;20731;-71
2022/05/05 10:29:03;;;;;;;4.70;3.17;;;19.00;53.50;;;;;;5094240;28;20273;-72
2022/05/05 10:31:31;;;;;;;2.72;2.53;;;19.00;53.40;;;;;;5096278;28;20174;-74
2022/05/05 10:33:58;;;;;;;2.88;2.67;;;19.00;53.40;;;;;;5095884;28;20179;-73
2022/05/05 10:36:24;;;;;;;4.90;3.15;;;19.10;53.50;;;;;;5095386;28;20614;-73
2022/05/05 10:38:50;;;;;;;4.45;2.72;;;19.10;53.40;;;;;;5095764;28;20234;-70
2022/05/05 10:41:40;;;;;;;5.45;3.40;;;19.10;53.40;;;;;;5096145;28;20177;-71
2022/05/05 10:44:18;;;;;;;5.18;2.97;;;19.10;53.40;;;;;;5095145;28;20648;-71
2022/05/05 10:47:02;;;;;;;6.20;3.13;;;19.10;53.30;;;;;;5095453;28;20580;-69
2022/05/05 10:49:34;;;;;;;9.38;3.38;;;19.10;53.20;;;;;;5095422;28;20184;-69
2022/05/05 10:52:12;;;;;;;3.35;2.70;;;19.10;53.20;;;;;;5095886;28;20231;-69
2022/05/05 10:54:38;;;;;;;4.65;2.80;;;19.10;53.20;;;;;;5095504;28;20197;-69
2022/05/05 10:57:25;;;;;;;5.18;3.17;;;19.10;53.20;;;;;;5095076;28;20174;-70
2022/05/05 11:00:18;;;;;;;3.45;3.10;;;19.10;53.20;;;;;;5095177;28;20362;-72
2022/05/05 11:02:56;;;;;;;3.95;2.83;;;19.10;53.10;;;;;;5094266;28;20174;-69
2022/05/05 11:05:23;;;;;;;3.58;3.10;;;19.20;53.20;;;;;;5094894;28;20166;-69
2022/05/05 11:07:51;;;;;;;6.93;2.90;;;19.20;53.10;;;;;;5095149;28;20241;-68
2022/05/05 11:10:42;;;;;;;3.92;2.78;;;19.30;53.10;;;;;;5095397;28;20260;-69
2022/05/05 11:13:08;;;;;;;4.00;2.78;;;19.40;53.10;;;;;;5095203;28;20663;-69
2022/05/05 11:21:33;;;;;;;3.90;2.65;;;19.30;53.00;;;;;;5095135;28;20536;-70
2022/05/05 11:24:00;;;;;;;6.45;3.17;;;19.40;53.00;;;;;;5094681;28;20173;-68
2022/05/05 11:26:26;;;;;;;4.47;2.67;;;19.40;53.00;;;;;;5093305;28;20174;-70
2022/05/05 11:28:51;;;;;;;5.53;2.85;;;19.40;52.90;;;;;;5094696;28;20242;-69
2022/05/05 11:31:20;;;;;;;5.38;2.67;;;19.40;52.90;;;;;;5095017;28;20166;-69
2022/05/05 11:33:57;;;;;;;6.13;2.80;;;19.50;52.90;;;;;;5093726;28;20190;-69
2022/05/05 11:36:26;;;;;;;5.32;2.50;;;19.50;52.80;;;;;;5095139;28;20170;-69
2022/05/05 11:38:51;;;;;;;3.17;2.67;;;19.50;52.70;;;;;;5093768;28;20999;-68
2022/05/05 11:41:21;;;;;;;3.45;2.15;;;19.50;52.70;;;;;;5093730;28;20161;-68
2022/05/05 11:46:31;;;;;;;3.08;2.80;;;19.60;52.50;;;;;;5094147;28;20304;-68
2022/05/05 11:48:57;;;;;;;6.15;2.60;;;19.60;52.50;;;;;;5094491;28;20625;-68
2022/05/05 11:51:27;;;;;;;3.75;2.63;;;19.60;52.50;;;;;;5094855;28;20620;-68
2022/05/05 11:54:07;;;;;;;3.63;2.25;;;19.70;52.50;;;;;;5093703;28;20182;-68
2022/05/05 11:56:33;;;;;;;3.03;2.58;;;19.70;52.40;;;;;;5094462;28;20173;-69
2022/05/05 12:01:37;;;;;;;5.15;2.92;;;19.70;52.30;;;;;;5094199;28;20170;-68
2022/05/05 12:02:17;;;;;;;3.15;2.90;;;19.80;52.30;;;;;;5094309;28;20180;-69
2022/05/05 12:04:44;;;;;;;3.35;2.42;;;19.90;52.20;;;;;;5094183;28;20184;-68
2022/05/05 12:07:12;;;;;;;2.60;2.20;;;19.90;52.10;;;;;;5093690;28;20210;-68
2022/05/05 12:09:37;;;;;;;3.03;2.42;;;19.90;52.10;;;;;;5094112;28;20174;-68
2022/05/05 12:12:10;;;;;;;3.30;2.50;;;19.90;52.10;;;;;;5092984;28;20178;-68
2022/05/05 12:14:40;;;;;;;3.63;2.55;;;20.00;52.00;;;;;;5093192;28;20194;-68
2022/05/05 12:17:06;;;;;;;2.85;2.42;;;20.00;52.00;;;;;;5094129;28;20178;-68
2022/05/05 12:19:32;;;;;;;3.10;2.38;;;20.00;52.00;;;;;;5094130;28;20209;-68
2022/05/05 12:21:57;;;;;;;2.30;2.10;;;20.00;51.90;;;;;;5091693;28;20204;-68
2022/05/05 12:24:24;;;;;;;3.33;2.38;;;20.10;51.80;;;;;;5094071;28;20172;-69
2022/05/05 12:26:51;;;;;;;3.15;2.83;;;20.20;51.80;;;;;;5093400;28;20301;-68
2022/05/05 12:29:19;;;;;;;2.50;2.17;;;20.20;51.70;;;;;;5091829;28;20181;-68
2022/05/05 12:31:57;;;;;;;2.92;2.63;;;20.20;51.60;;;;;;5093604;28;20654;-69
2022/05/05 12:34:25;;;;;;;4.35;2.85;;;20.30;51.60;;;;;;5093703;28;20671;-72
2022/05/05 12:37:09;;;;;;;3.65;2.47;;;20.30;51.50;;;;;;5092300;28;20636;-72
2022/05/05 12:39:34;;;;;;;3.90;2.35;;;20.30;51.60;;;;;;5093747;28;20181;-71
2022/05/05 12:42:00;;;;;;;3.90;2.80;;;20.20;51.70;;;;;;5091782;28;20182;-72
2022/05/05 12:44:35;;;;;;;3.60;3.05;;;20.20;51.80;;;;;;5093806;28;20228;-72
2022/05/05 12:47:03;;;;;;;3.90;3.55;;;20.10;51.80;;;;;;5093683;28;20228;-71
2022/05/05 12:49:36;;;;;;;3.85;3.55;;;20.10;51.90;;;;;;5092927;28;20178;-70
2022/05/05 12:52:02;;;;;;;4.28;3.97;;;20.10;51.90;;;;;;5093573;28;20261;-71
2022/05/05 12:59:57;;;;;;;4.80;3.97;;;19.90;52.10;;;;;;5092874;28;20248;-72
2022/05/05 13:02:23;;;;;;;3.95;3.65;;;19.90;52.20;;;;;;5093395;28;20602;-72
2022/05/05 13:04:48;;;;;;;5.22;4.07;;;19.80;52.30;;;;;;5092344;28;20717;-71
2022/05/05 13:07:14;;;;;;;5.13;4.40;;;19.80;52.40;;;;;;5093124;28;20601;-71
2022/05/05 13:09:39;;;;;;;4.50;4.10;;;19.70;52.40;;;;;;5093011;28;20248;-70
2022/05/05 13:12:05;;;;;;;4.30;3.90;;;19.70;52.50;;;;;;5092462;28;20535;-69
2022/05/05 13:14:31;;;;;;;4.45;4.05;;;19.70;52.60;;;;;;5093189;28;20174;-70
2022/05/05 13:16:58;;;;;;;5.07;4.63;;;19.60;52.60;;;;;;5092784;28;20590;-71
2022/05/05 13:19:25;;;;;;;4.60;4.20;;;19.60;52.70;;;;;;5091662;28;20170;-72
2022/05/05 13:21:51;;;;;;;4.20;3.80;;;19.50;52.70;;;;;;5092887;28;20184;-70
2022/05/05 13:24:16;;;;;;;4.50;4.10;;;19.50;52.80;;;;;;5092165;28;20177;-71
2022/05/05 13:26:44;;;;;;;4.47;4.07;;;19.50;52.80;;;;;;5092808;28;20194;-72
2022/05/05 13:29:10;;;;;;;4.43;4.07;;;19.50;52.80;;;;;;5093036;28;20182;-71
2022/05/05 13:31:35;;;;;;;4.63;4.22;;;19.40;52.90;;;;;;5091944;28;20206;-73
2022/05/05 13:34:01;;;;;;;4.07;3.78;;;19.40;52.90;;;;;;5092911;28;20260;-74